createdAt,value
2023-04-21T00:00:10.211Z,11.25
2023-04-21T00:02:40.079Z,14.52
2023-04-21T00:05:10.668Z,15.27
2023-04-21T00:07:38.404Z,10.90
2023-04-21T00:10:07.765Z,11.48
2023-04-21T00:12:35.046Z,12.20
2023-04-21T00:15:02.246Z,13.23
2023-04-21T00:17:29.690Z,10.07
2023-04-21T00:19:57.269Z,13.65
2023-04-21T00:22:24.570Z,13.38
2023-04-21T00:24:51.835Z,15.27
2023-04-21T00:27:18.998Z,10.63
2023-04-21T00:29:46.157Z,13.73
2023-04-21T00:32:13.497Z,13.25
2023-04-21T00:34:40.734Z,11.63
2023-04-21T00:37:07.956Z,16.15
2023-04-21T00:39:35.196Z,13.98
2023-04-21T00:42:02.567Z,14.43
2023-04-21T00:44:29.687Z,14.68
2023-04-21T00:46:57.935Z,13.18
2023-04-21T00:49:25.918Z,12.55
2023-04-21T00:51:53.632Z,12.00
2023-04-21T00:54:26.144Z,12.05
2023-04-21T00:56:55.572Z,11.82
2023-04-21T00:59:22.668Z,14.07
2023-04-21T01:01:50.282Z,12.63
2023-04-21T01:04:17.590Z,11.60
2023-04-21T01:06:45.088Z,12.05
2023-04-21T01:09:13.152Z,14.23
2023-04-21T01:11:40.508Z,13.60
2023-04-21T01:14:08.295Z,15.13
2023-04-21T01:16:35.569Z,15.18
2023-04-21T01:19:04.589Z,11.45
2023-04-21T01:21:39.008Z,15.00
2023-04-21T01:24:06.461Z,12.48
2023-04-21T01:26:33.549Z,12.38
2023-04-21T01:29:02.118Z,12.85
2023-04-21T01:31:29.356Z,17.63
2023-04-21T01:33:56.745Z,12.45
2023-04-21T01:36:24.068Z,15.65
2023-04-21T01:38:52.738Z,11.90
2023-04-21T01:41:19.888Z,14.48
2023-04-21T01:43:47.261Z,11.30
2023-04-21T01:46:14.394Z,11.90
2023-04-21T01:48:41.634Z,13.10
2023-04-21T01:51:08.812Z,13.77
2023-04-21T01:53:36.004Z,14.27
2023-04-21T01:56:03.101Z,15.75
2023-04-21T01:58:31.494Z,13.30
2023-04-21T02:00:58.698Z,10.95
2023-04-21T02:03:25.948Z,10.57
2023-04-21T02:05:53.152Z,13.68
2023-04-21T02:08:20.434Z,13.40
2023-04-21T02:10:47.622Z,13.07
2023-04-21T02:13:14.911Z,15.10
2023-04-21T02:15:42.241Z,11.02
2023-04-21T02:18:09.577Z,12.85
2023-04-21T02:20:37.836Z,13.82
2023-04-21T02:23:05.044Z,13.32
2023-04-21T02:25:32.314Z,10.23
2023-04-21T02:27:59.855Z,11.75
2023-04-21T02:30:28.149Z,13.18
2023-04-21T02:32:55.433Z,12.27
2023-04-21T02:35:22.835Z,12.23
2023-04-21T02:37:51.058Z,16.90
2023-04-21T02:40:18.270Z,13.32
2023-04-21T02:42:45.830Z,12.77
2023-04-21T02:45:13.165Z,11.07
2023-04-21T02:47:40.528Z,14.40
2023-04-21T02:50:08.118Z,12.65
2023-04-21T02:52:38.095Z,15.35
2023-04-21T02:55:05.748Z,12.13
2023-04-21T02:57:33.050Z,13.20
2023-04-21T03:00:00.456Z,11.70
2023-04-21T03:02:27.946Z,14.38
2023-04-21T03:04:56.651Z,11.95
2023-04-21T03:07:23.948Z,11.90
2023-04-21T03:09:51.218Z,12.93
2023-04-21T03:12:18.588Z,12.88
2023-04-21T03:14:45.882Z,12.60
2023-04-21T03:17:13.159Z,11.48
2023-04-21T03:19:40.570Z,13.52
2023-04-21T03:22:07.767Z,14.35
2023-04-21T03:24:35.329Z,13.70
2023-04-21T03:27:02.808Z,12.77
2023-04-21T03:29:30.122Z,11.85
2023-04-21T03:31:57.524Z,15.05
2023-04-21T03:34:25.819Z,12.57
2023-04-21T03:36:53.058Z,15.40
2023-04-21T03:39:22.129Z,14.63
2023-04-21T03:41:51.498Z,14.15
2023-04-21T03:44:18.627Z,10.15
2023-04-21T03:46:45.806Z,11.15
2023-04-21T03:49:13.088Z,14.70
2023-04-21T03:51:40.348Z,12.25
2023-04-21T03:54:08.507Z,12.68
2023-04-21T03:56:35.927Z,12.60
2023-04-21T03:59:03.226Z,11.68
2023-04-21T04:01:30.478Z,13.43
2023-04-21T04:03:58.078Z,11.48
2023-04-21T04:06:25.448Z,12.68
2023-04-21T04:08:52.777Z,13.45
2023-04-21T04:11:20.069Z,15.25
2023-04-21T04:13:47.229Z,11.82
2023-04-21T04:16:14.405Z,12.75
2023-04-21T04:18:41.654Z,13.38
2023-04-21T04:21:08.951Z,16.75
2023-04-21T04:23:36.631Z,13.05
2023-04-21T04:26:05.786Z,12.70
2023-04-21T04:28:33.776Z,16.98
2023-04-21T04:31:01.405Z,15.02
2023-04-21T04:33:29.190Z,11.77
2023-04-21T04:35:56.376Z,13.88
2023-04-21T04:38:23.458Z,13.57
2023-04-21T04:40:53.749Z,12.25
2023-04-21T04:43:21.350Z,16.08
2023-04-21T04:45:48.723Z,13.50
2023-04-21T04:48:16.549Z,11.90
2023-04-21T04:50:44.078Z,14.73
2023-04-21T04:53:11.362Z,13.63
2023-04-21T04:55:38.662Z,13.45
2023-04-21T04:58:05.830Z,13.68
2023-04-21T05:00:33.278Z,12.88
2023-04-21T05:03:00.751Z,14.85
2023-04-21T05:05:28.058Z,16.67
2023-04-21T05:07:55.199Z,18.08
2023-04-21T05:10:22.467Z,14.20
2023-04-21T05:12:49.878Z,13.32
2023-04-21T05:15:18.508Z,16.65
2023-04-21T05:17:45.772Z,12.45
2023-04-21T05:20:13.092Z,12.85
2023-04-21T05:22:40.875Z,16.35
2023-04-21T05:25:10.430Z,15.07
2023-04-21T05:27:37.520Z,16.08
2023-04-21T05:30:05.098Z,15.50
2023-04-21T05:32:32.362Z,13.88
2023-04-21T05:35:00.549Z,14.98
2023-04-21T05:37:27.770Z,16.23
2023-04-21T05:39:55.064Z,13.35
2023-04-21T05:42:22.152Z,13.27
2023-04-21T05:44:49.413Z,14.80
2023-04-21T05:47:16.629Z,20.45
2023-04-21T05:49:50.485Z,13.73
2023-04-21T05:52:18.083Z,15.45
2023-04-21T05:54:45.309Z,15.57
2023-04-21T05:57:12.499Z,22.63
2023-04-21T05:59:39.689Z,13.48
2023-04-21T06:02:07.565Z,16.73
2023-04-21T06:04:35.022Z,25.70
2023-04-21T06:07:08.302Z,20.02
2023-04-21T06:09:36.341Z,21.50
2023-04-21T06:12:03.955Z,15.75
2023-04-21T06:14:31.318Z,21.83
2023-04-21T06:16:58.830Z,17.25
2023-04-21T06:19:26.002Z,24.73
2023-04-21T06:21:53.207Z,19.50
2023-04-21T06:24:25.589Z,15.30
2023-04-21T06:26:53.573Z,18.63
2023-04-21T06:29:21.127Z,18.13
2023-04-21T06:31:48.560Z,16.08
2023-04-21T06:34:16.365Z,18.48
2023-04-21T06:36:43.875Z,23.35
2023-04-21T06:39:11.168Z,17.42
2023-04-21T06:41:38.530Z,17.35
2023-04-21T06:44:06.068Z,12.77
2023-04-21T06:46:33.452Z,18.58
2023-04-21T06:49:01.119Z,18.25
2023-04-21T06:51:28.566Z,21.20
2023-04-21T06:53:55.866Z,11.07
2023-04-21T06:56:23.232Z,12.25
2023-04-21T06:58:50.687Z,12.25
2023-04-21T07:01:18.176Z,19.27
2023-04-21T07:03:45.860Z,13.75
2023-04-21T07:06:13.744Z,16.65
2023-04-21T07:08:41.585Z,11.40
2023-04-21T07:11:08.972Z,13.18
2023-04-21T07:13:36.352Z,12.68
2023-04-21T07:16:03.851Z,10.77
2023-04-21T07:18:31.190Z,11.73
2023-04-21T07:20:58.732Z,11.07
2023-04-21T07:23:25.961Z,11.07
2023-04-21T07:25:53.412Z,12.70
2023-04-21T07:28:20.951Z,11.50
2023-04-21T07:30:48.500Z,10.10
2023-04-21T07:33:16.344Z,11.10
2023-04-21T07:35:43.944Z,10.40
2023-04-21T07:38:11.237Z,10.02
2023-04-21T07:40:38.674Z,10.75
2023-04-21T07:43:06.073Z,11.88
2023-04-21T07:45:33.468Z,13.50
2023-04-21T07:48:00.921Z,10.52
2023-04-21T07:50:28.418Z,12.77
2023-04-21T07:52:55.756Z,10.02
2023-04-21T07:55:23.134Z,9.70
2023-04-21T07:57:50.761Z,9.95
2023-04-21T08:00:18.444Z,11.00
2023-04-21T08:02:46.119Z,9.43
2023-04-21T08:05:13.948Z,10.90
2023-04-21T08:07:41.257Z,9.85
2023-04-21T08:10:09.339Z,13.25
2023-04-21T08:12:36.769Z,9.70
2023-04-21T08:15:08.315Z,9.43
2023-04-21T08:17:36.152Z,12.07
2023-04-21T08:20:03.976Z,9.80
2023-04-21T08:22:31.529Z,10.90
2023-04-21T08:24:58.875Z,12.77
2023-04-21T08:27:26.423Z,13.30
2023-04-21T08:29:53.715Z,9.10
2023-04-21T08:32:24.782Z,11.00
2023-04-21T08:34:54.720Z,9.07
2023-04-21T08:37:23.130Z,10.82
2023-04-21T08:39:51.074Z,8.75
2023-04-21T08:42:19.184Z,9.80
2023-04-21T08:44:47.537Z,10.32
2023-04-21T08:47:15.865Z,9.27
2023-04-21T08:49:45.534Z,11.77
2023-04-21T08:52:14.723Z,9.23
2023-04-21T08:54:42.704Z,12.82
2023-04-21T08:57:15.222Z,9.85
2023-04-21T08:59:43.166Z,10.45
2023-04-21T09:02:14.082Z,9.32
2023-04-21T09:04:43.647Z,9.90
2023-04-21T09:07:11.620Z,10.75
2023-04-21T09:09:42.379Z,10.95
2023-04-21T09:12:09.724Z,11.65
2023-04-21T09:14:37.278Z,10.55
2023-04-21T09:17:05.350Z,9.38
2023-04-21T09:19:34.886Z,10.70
2023-04-21T09:22:02.837Z,12.50
2023-04-21T09:24:31.069Z,11.77
2023-04-21T09:26:58.580Z,8.05
2023-04-21T09:29:26.732Z,10.13
2023-04-21T09:32:03.022Z,8.55
2023-04-21T09:34:31.094Z,10.73
2023-04-21T09:37:01.567Z,9.40
2023-04-21T09:39:43.097Z,10.60
2023-04-21T09:42:13.915Z,9.65
2023-04-21T09:44:53.291Z,10.55
2023-04-21T09:47:31.447Z,9.60
2023-04-21T09:49:59.129Z,8.32
2023-04-21T09:52:29.215Z,12.15
2023-04-21T09:55:04.423Z,7.88
2023-04-21T09:57:33.616Z,9.93
2023-04-21T10:00:05.488Z,9.70
2023-04-21T10:02:36.118Z,10.05
2023-04-21T10:05:05.623Z,13.18
2023-04-21T10:07:33.201Z,9.70
2023-04-21T10:10:02.505Z,9.02
2023-04-21T10:12:30.175Z,9.77
2023-04-21T10:14:57.829Z,8.75
2023-04-21T10:17:27.048Z,8.23
2023-04-21T10:19:57.619Z,8.02
2023-04-21T10:22:27.960Z,8.75
2023-04-21T10:24:57.249Z,8.90
2023-04-21T10:27:27.870Z,8.25
2023-04-21T10:29:57.013Z,7.55
2023-04-21T10:32:28.130Z,8.98
2023-04-21T10:34:57.357Z,9.00
2023-04-21T10:37:24.620Z,7.90
2023-04-21T10:39:54.986Z,8.68
2023-04-21T10:42:25.619Z,10.10
2023-04-21T10:44:56.882Z,10.40
2023-04-21T10:47:28.117Z,7.78
2023-04-21T10:49:58.459Z,7.80
2023-04-21T10:52:28.923Z,8.57
2023-04-21T10:55:12.800Z,7.72
2023-04-21T10:57:44.189Z,8.15
2023-04-21T11:00:15.765Z,8.10
2023-04-21T11:02:44.963Z,7.53
2023-04-21T11:05:12.864Z,7.25
2023-04-21T11:07:40.627Z,8.32
2023-04-21T11:10:09.317Z,7.55
2023-04-21T11:12:39.723Z,8.10
2023-04-21T11:15:09.256Z,7.30
2023-04-21T11:17:39.787Z,8.00
2023-04-21T11:20:08.714Z,7.20
2023-04-21T11:22:38.678Z,7.57
2023-04-21T11:25:06.815Z,7.75
2023-04-21T11:27:34.192Z,10.60
2023-04-21T11:30:04.339Z,8.52
2023-04-21T11:32:31.677Z,8.25
2023-04-21T11:34:59.371Z,7.47
2023-04-21T11:37:27.936Z,12.50
2023-04-21T11:39:57.708Z,6.32
2023-04-21T11:42:25.213Z,8.55
2023-04-21T11:44:56.748Z,6.82
2023-04-21T11:47:27.437Z,8.20
2023-04-21T11:49:57.237Z,8.15
2023-04-21T11:52:28.140Z,7.47
2023-04-21T11:54:59.178Z,7.88
2023-04-21T11:57:28.237Z,7.03
2023-04-21T11:59:58.608Z,8.30
2023-04-21T12:02:28.890Z,7.53
2023-04-21T12:04:59.365Z,6.50
2023-04-21T12:07:27.407Z,8.82
2023-04-21T12:09:54.892Z,6.50
2023-04-21T12:12:24.360Z,6.32
2023-04-21T12:14:53.202Z,6.28
2023-04-21T12:17:20.957Z,6.25
2023-04-21T12:19:48.526Z,6.72
2023-04-21T12:22:18.798Z,6.50
2023-04-21T12:24:46.628Z,7.90
2023-04-21T12:27:14.556Z,8.75
2023-04-21T12:29:42.744Z,7.30
2023-04-21T12:32:10.689Z,7.15
2023-04-21T12:34:38.283Z,7.10
2023-04-21T12:37:06.322Z,5.90
2023-04-21T12:39:34.816Z,7.75
2023-04-21T12:42:02.628Z,7.55
2023-04-21T12:44:30.047Z,7.15
2023-04-21T12:46:58.201Z,6.38
2023-04-21T12:49:26.167Z,7.22
2023-04-21T12:51:53.539Z,7.13
2023-04-21T12:54:20.907Z,6.22
2023-04-21T12:56:48.202Z,10.40
2023-04-21T12:59:15.845Z,6.65
2023-04-21T13:01:44.210Z,7.18
2023-04-21T13:04:12.134Z,7.35
2023-04-21T13:06:40.347Z,8.90
2023-04-21T13:09:07.818Z,5.90
2023-04-21T13:11:35.138Z,7.05
2023-04-21T13:14:04.261Z,6.47
2023-04-21T13:16:32.145Z,6.05
2023-04-21T13:18:59.634Z,5.80
2023-04-21T13:21:26.945Z,7.15
2023-04-21T13:23:54.587Z,6.43
2023-04-21T13:26:22.017Z,5.72
2023-04-21T13:28:49.596Z,6.40
2023-04-21T13:31:17.155Z,7.68
2023-04-21T13:33:44.680Z,6.90
2023-04-21T13:36:13.197Z,8.50
2023-04-21T13:38:41.162Z,10.32
2023-04-21T13:41:08.978Z,5.20
2023-04-21T13:43:36.423Z,9.35
2023-04-21T13:46:03.965Z,10.75
2023-04-21T13:48:31.630Z,6.15
2023-04-21T13:50:58.958Z,6.75
2023-04-21T13:53:27.153Z,7.85
2023-04-21T13:55:57.258Z,8.38
2023-04-21T13:58:24.647Z,5.68
2023-04-21T14:00:52.060Z,7.88
2023-04-21T14:03:19.684Z,8.05
2023-04-21T14:05:47.134Z,6.38
2023-04-21T14:08:14.635Z,6.72
2023-04-21T14:10:41.898Z,7.32
2023-04-21T14:13:17.402Z,7.35
2023-04-21T14:15:55.564Z,7.88
2023-04-21T14:18:23.633Z,8.13
2023-04-21T14:20:51.034Z,6.68
2023-04-21T14:23:18.418Z,6.70
2023-04-21T14:25:46.007Z,7.57
2023-04-21T14:28:13.248Z,6.32
2023-04-21T14:30:43.463Z,7.35
2023-04-21T14:33:10.921Z,7.32
2023-04-21T14:35:38.379Z,7.43
2023-04-21T14:38:05.804Z,6.75
2023-04-21T14:40:33.229Z,7.05
2023-04-21T14:43:00.792Z,8.80
2023-04-21T14:45:28.347Z,6.55
2023-04-21T14:47:55.913Z,6.65
2023-04-21T14:50:23.425Z,8.30
2023-04-21T14:52:50.949Z,7.38
2023-04-21T14:55:18.404Z,9.02
2023-04-21T14:57:47.232Z,7.22
2023-04-21T15:00:14.999Z,7.75
2023-04-21T15:02:42.446Z,7.30
2023-04-21T15:05:10.185Z,7.10
2023-04-21T15:07:37.740Z,6.95
2023-04-21T15:10:05.694Z,8.77
2023-04-21T15:12:34.594Z,5.85
2023-04-21T15:15:04.150Z,7.05
2023-04-21T15:17:31.720Z,8.15
2023-04-21T15:19:59.116Z,6.13
2023-04-21T15:22:26.731Z,6.70
2023-04-21T15:24:54.732Z,7.93
2023-04-21T15:27:22.222Z,5.90
2023-04-21T15:29:50.264Z,5.93
2023-04-21T15:32:17.517Z,6.50
2023-04-21T15:34:44.878Z,5.03
2023-04-21T15:37:12.339Z,5.88
2023-04-21T15:39:39.916Z,6.00
2023-04-21T15:42:08.533Z,8.35
2023-04-21T15:44:38.032Z,6.82
2023-04-21T15:47:05.822Z,6.82
2023-04-21T15:49:33.448Z,6.18
2023-04-21T15:52:03.360Z,6.95
2023-04-21T15:54:31.387Z,8.20
2023-04-21T15:56:58.753Z,6.43
2023-04-21T15:59:26.486Z,8.60
2023-04-21T16:01:54.275Z,8.43
2023-04-21T16:04:21.824Z,6.50
2023-04-21T16:06:49.778Z,5.78
2023-04-21T16:09:17.411Z,6.47
2023-04-21T16:11:45.021Z,6.40
2023-04-21T16:14:16.630Z,6.03
2023-04-21T16:16:44.883Z,5.90
2023-04-21T16:19:12.392Z,5.80
2023-04-21T16:21:40.380Z,5.65
2023-04-21T16:24:08.771Z,5.15
2023-04-21T16:26:36.929Z,5.07
2023-04-21T16:29:04.529Z,7.22
2023-04-21T16:31:32.005Z,9.80
2023-04-21T16:34:00.031Z,12.98
2023-04-21T16:36:28.682Z,7.78
2023-04-21T16:38:56.536Z,13.32
2023-04-21T16:41:24.039Z,10.10
2023-04-21T16:43:51.786Z,6.57
2023-04-21T16:46:19.188Z,5.30
2023-04-21T16:48:47.057Z,8.25
2023-04-21T16:51:14.441Z,6.07
2023-04-21T16:53:42.749Z,6.00
2023-04-21T16:56:10.205Z,8.82
2023-04-21T16:58:37.940Z,6.70
2023-04-21T17:01:07.733Z,7.65
2023-04-21T17:03:35.460Z,7.35
2023-04-21T17:06:05.153Z,5.75
2023-04-21T17:08:32.575Z,5.55
2023-04-21T17:11:00.294Z,6.13
2023-04-21T17:13:27.823Z,6.75
2023-04-21T17:15:55.147Z,6.93
2023-04-21T17:18:22.540Z,7.35
2023-04-21T17:20:49.894Z,5.50
2023-04-21T17:23:17.336Z,6.78
2023-04-21T17:25:44.637Z,6.72
2023-04-21T17:28:12.149Z,6.95
2023-04-21T17:30:39.477Z,5.82
2023-04-21T17:33:16.105Z,7.40
2023-04-21T17:36:00.029Z,8.00
2023-04-21T17:38:31.035Z,9.38
2023-04-21T17:40:59.968Z,7.32
2023-04-21T17:43:27.585Z,6.85
2023-04-21T17:45:55.077Z,6.55
2023-04-21T17:48:22.716Z,6.35
2023-04-21T17:50:50.034Z,7.10
2023-04-21T17:53:18.500Z,8.88
2023-04-21T17:55:45.970Z,7.22
2023-04-21T17:58:13.305Z,6.88
2023-04-21T18:00:40.986Z,7.50
2023-04-21T18:03:08.692Z,8.07
2023-04-21T18:05:36.335Z,8.93
2023-04-21T18:08:03.913Z,8.23
2023-04-21T18:10:31.417Z,6.85
2023-04-21T18:12:58.957Z,6.95
2023-04-21T18:15:26.469Z,7.60
2023-04-21T18:17:54.124Z,8.10
2023-04-21T18:20:21.617Z,7.55
2023-04-21T18:22:50.666Z,10.35
2023-04-21T18:25:34.095Z,10.05
2023-04-21T18:28:07.748Z,10.93
2023-04-21T18:30:35.193Z,8.63
2023-04-21T18:33:02.760Z,6.32
2023-04-21T18:35:32.198Z,7.50
2023-04-21T18:37:59.656Z,7.85
2023-04-21T18:40:26.998Z,7.60
2023-04-21T18:42:54.332Z,7.00
2023-04-21T18:45:21.673Z,7.95
2023-04-21T18:47:48.962Z,6.30
2023-04-21T18:50:16.360Z,6.20
2023-04-21T18:52:43.837Z,9.30
2023-04-21T18:55:11.219Z,10.65
2023-04-21T18:57:38.621Z,8.65
2023-04-21T19:00:07.558Z,6.43
2023-04-21T19:02:35.070Z,9.15
2023-04-21T19:05:03.109Z,10.55
2023-04-21T19:07:30.545Z,6.65
2023-04-21T19:09:58.148Z,7.55
2023-04-21T19:12:26.166Z,8.20
2023-04-21T19:14:53.932Z,9.27
2023-04-21T19:17:21.748Z,7.53
2023-04-21T19:19:49.111Z,8.43
2023-04-21T19:22:16.526Z,6.72
2023-04-21T19:24:43.746Z,6.82
2023-04-21T19:27:11.198Z,8.57
2023-04-21T19:29:38.582Z,7.25
2023-04-21T19:32:07.494Z,6.85
2023-04-21T19:34:35.138Z,8.35
2023-04-21T19:37:02.727Z,6.57
2023-04-21T19:39:29.972Z,7.88
2023-04-21T19:41:57.978Z,7.03
2023-04-21T19:44:25.290Z,11.30
2023-04-21T19:46:52.702Z,7.55
2023-04-21T19:49:19.992Z,7.88
2023-04-21T19:51:47.512Z,7.18
2023-04-21T19:54:14.944Z,8.52
2023-04-21T19:56:42.564Z,7.05
2023-04-21T19:59:09.923Z,6.95
2023-04-21T20:01:37.379Z,7.07
2023-04-21T20:04:04.965Z,9.65
2023-04-21T20:06:33.378Z,8.50
2023-04-21T20:09:05.774Z,8.10
2023-04-21T20:11:34.164Z,6.20
2023-04-21T20:14:01.594Z,11.57
2023-04-21T20:16:29.243Z,8.48
2023-04-21T20:18:56.731Z,7.53
2023-04-21T20:21:25.338Z,9.02
2023-04-21T20:23:52.771Z,8.73
2023-04-21T20:26:20.924Z,6.40
2023-04-21T20:28:48.543Z,9.35
2023-04-21T20:31:16.660Z,7.47
2023-04-21T20:33:44.052Z,9.02
2023-04-21T20:36:12.008Z,7.72
2023-04-21T20:38:39.344Z,7.47
2023-04-21T20:41:06.869Z,7.15
2023-04-21T20:43:34.432Z,9.10
2023-04-21T20:46:03.352Z,9.57
2023-04-21T20:48:30.880Z,7.10
2023-04-21T20:50:58.508Z,7.32
2023-04-21T20:53:26.274Z,7.38
2023-04-21T20:55:53.690Z,7.45
2023-04-21T20:58:21.163Z,13.55
2023-04-21T21:00:48.586Z,6.97
2023-04-21T21:03:17.440Z,8.45
2023-04-21T21:05:45.093Z,7.03
2023-04-21T21:08:12.381Z,8.20
2023-04-21T21:10:39.795Z,7.82
2023-04-21T21:13:07.164Z,8.50
2023-04-21T21:15:35.142Z,6.85
2023-04-21T21:18:02.742Z,11.07
2023-04-21T21:20:30.650Z,7.25
2023-04-21T21:22:58.029Z,7.88
2023-04-21T21:25:27.162Z,8.63
2023-04-21T21:27:54.620Z,9.77
2023-04-21T21:30:22.246Z,7.60
2023-04-21T21:32:51.033Z,9.63
2023-04-21T21:35:18.596Z,9.02
2023-04-21T21:37:45.909Z,9.32
2023-04-21T21:40:14.103Z,9.52
2023-04-21T21:42:41.982Z,7.72
2023-04-21T21:45:11.224Z,6.80
2023-04-21T21:47:41.200Z,9.18
2023-04-21T21:50:12.793Z,6.63
2023-04-21T21:52:40.487Z,7.93
2023-04-21T21:55:08.443Z,8.50
2023-04-21T21:57:36.275Z,7.20
2023-04-21T22:00:08.278Z,8.35
2023-04-21T22:02:36.208Z,9.68
2023-04-21T22:05:06.455Z,8.05
2023-04-21T22:07:35.641Z,8.18
2023-04-21T22:10:03.871Z,10.25
2023-04-21T22:12:33.186Z,9.88
2023-04-21T22:15:00.501Z,9.30
2023-04-21T22:17:29.636Z,8.63
2023-04-21T22:19:57.991Z,10.10
2023-04-21T22:22:25.452Z,8.85
2023-04-21T22:24:52.996Z,10.77
2023-04-21T22:27:20.812Z,11.48
2023-04-21T22:29:48.094Z,7.97
2023-04-21T22:32:15.513Z,6.93
2023-04-21T22:34:42.921Z,7.57
2023-04-21T22:37:10.545Z,8.23
2023-04-21T22:39:39.225Z,9.70
2023-04-21T22:42:07.147Z,11.82
2023-04-21T22:44:34.571Z,7.68
2023-04-21T22:47:01.946Z,8.27
2023-04-21T22:49:29.315Z,10.95
2023-04-21T22:51:56.679Z,8.93
2023-04-21T22:54:23.953Z,12.48
2023-04-21T22:56:51.442Z,9.90
2023-04-21T22:59:18.769Z,7.72
2023-04-21T23:01:46.256Z,8.88
2023-04-21T23:04:13.722Z,10.75
2023-04-21T23:06:41.725Z,8.93
2023-04-21T23:09:09.060Z,9.35
2023-04-21T23:11:36.666Z,11.13
2023-04-21T23:14:03.976Z,10.02
2023-04-21T23:16:31.969Z,10.70
2023-04-21T23:18:59.483Z,11.55
2023-04-21T23:21:26.920Z,8.93
2023-04-21T23:23:54.196Z,12.48
2023-04-21T23:26:21.984Z,11.65
2023-04-21T23:28:49.249Z,10.60
2023-04-21T23:31:16.738Z,11.18
2023-04-21T23:33:44.664Z,9.48
2023-04-21T23:36:12.133Z,9.73
2023-04-21T23:38:39.500Z,11.57
2023-04-21T23:41:06.993Z,10.93
2023-04-21T23:43:34.699Z,10.80
2023-04-21T23:46:02.116Z,10.70
2023-04-21T23:48:29.574Z,11.05
2023-04-21T23:50:57.043Z,10.30
2023-04-21T23:53:24.300Z,15.70
2023-04-21T23:55:51.791Z,12.25
2023-04-21T23:58:19.105Z,10.30
